Decker, MT (59025)

1:43 AM MDT on September 22, 2014 (GMT -0600)
Tongue River Reservoir | Change Station
CLOSE
Current Station
Personal Weather Station
Location: Decker, MT
Elevation: 3486 ft
Nearby Weather Stations

Elev 3486 ft 45.13 °N, 106.78 °W | Updated 12 seconds ago

Partly Cloudy
Partly Cloudy
59.0 °F
Feels Like 59.0 °F
N
0.0
Wind Variable Wind from NE
Gusts 0.0 mph

Today
High -- | Low -- °F
--% Chance of Precip.
Yesterday
High -- | Low -- °F
Precip. -- in
6:53 AM 7:04 PM
Waning Crescent, 4% visible
Pressure 29.99 in
Visibility 10.0 miles
Clouds Clear
Dew Point 51 °F
Humidity 74%
Rainfall 0.00 in
Snow Depth Not available.
UV 0 out of 12
Pollen 5.00 out of 12
Air Quality Not available.
Flu Activity Not available.
METAR KSHR 220653Z AUTO 20007KT 10SM CLR 13/07 A3007 RMK AO2 SLP154 T01330072 402670033

More Conditions Fewer Conditions

Pressure 29.99 in
Visibility 10.0 miles
Clouds Clear
Dew Point 51 °F
Humidity 74%
Rainfall 0.00 in
Snow Depth Not available.
UV 0 out of 12
Pollen 5.00 out of 12
Air Quality Not available.
Flu Activity Not available.
METAR KSHR 220653Z AUTO 20007KT 10SM CLR 13/07 A3007 RMK AO2 SLP154 T01330072 402670033

More Conditions Fewer Conditions

10-Day Weather Forecast

Almanac

Astronomy

Sep. 22, 2014 Rise Set
Actual Time 6:53 AM MDT 7:04 PM MDT
Civil Twilight 6:24 AM MDT 7:33 PM MDT
Nautical Twilight 5:50 AM MDT 8:07 PM MDT
Astronomical Twilight 5:14 AM MDT 8:43 PM MDT
Moon 5:22 AM MDT 6:14 PM MDT
Length of Visible Light 13h 08m
Length of Day
12h 10m
Tomorrow will be 3m 7s shorter.
Waning Crescent, 4% of the Moon is Illuminated
Today
Waning Crescent
Sep 24
New
Oct 1
First Quarter
Oct 8
Full
Oct 15
Last Quarter

Today's Extremes

State Highs State Lows

Community

WunderPhotos

Upload Photos

1,755,392 photos uploaded!

Nearby

Snow Depth

Station Depth Elevation
Brackett Creek 0 in 7320 ft
Stringer Creek 0 in 6550 ft
Stahl Peak 0 in 6030 ft
Crystal Lake 0 in 6050 ft
Lubrecht Flume 0 in 4680 ft

Earthquake Activity

City Distance Mag. Time & Date
No recent earthquake activity has been reported nearby.
Minimum magnitude displayed is 2.5.

Coastal Water Temperatures

Place Temperature
No Stations Reporting

Nearby Weather Stations